ELY5117 LLBG-UGTB
Flight info
| Callsign | ELY5117 |
|---|---|
| Flight time | 2h 43m |
| Altitude | 34000 |
| Route | SUVAS N128 TEZAK L324 SAFTA DCT TOMBI/N0447F360 UA16 AYT/N0446F350 UR55 MUT/N0444F360 UT339 SELVI/N0443F350 UT339 SIV UW706 TBN UN61 NOLGA N61 LAGAS |
| Aircraft | B738/M-SDE2E3FGHIJ1LORVWXY/LB1 |
Departure
| Time | 2026-04-25 09:01 |
|---|---|
| Airport | Ben Gurion International Airport (LLBG) |
Arrival
| Time | 2026-04-25 11:44 |
|---|---|
| Airport | Tbilisi International Airport (UGTB) |
| Time | Latitude | Longitude | Altitude | Speed | Heading |
|---|---|---|---|---|---|
| 2026-04-25 08:35 | 32.00179 | 34.87336 | 119 ft | 0 kts | 56° |
| 2026-04-25 08:46 | 32.00178 | 34.87334 | 116 ft | 2 kts | 56° |
| 2026-04-25 08:46 | 32.00165 | 34.87308 | 119 ft | 4 kts | 62° |
| 2026-04-25 08:47 | 32.00151 | 34.87289 | 119 ft | 3 kts | 28° |
| 2026-04-25 08:47 | 32.00128 | 34.87282 | 117 ft | 4 kts | 344° |
| 2026-04-25 08:47 | 32.00107 | 34.87292 | 119 ft | 4 kts | 333° |
| 2026-04-25 08:47 | 32.00083 | 34.87306 | 115 ft | 4 kts | 334° |
| 2026-04-25 08:48 | 32.00061 | 34.87319 | 119 ft | 2 kts | 332° |
| 2026-04-25 08:48 | 32.00041 | 34.87334 | 114 ft | 4 kts | 309° |
| 2026-04-25 08:48 | 32.00028 | 34.87355 | 114 ft | 4 kts | 301° |
| 2026-04-25 08:48 | 32.00016 | 34.87383 | 114 ft | 4 kts | 297° |
| 2026-04-25 08:49 | 32.00010 | 34.87396 | 119 ft | 3 kts | 300° |
| 2026-04-25 08:49 | 32.00001 | 34.87424 | 119 ft | 4 kts | 281° |
| 2026-04-25 08:49 | 31.99991 | 34.87450 | 119 ft | 4 kts | 294° |
| 2026-04-25 08:49 | 31.99990 | 34.87487 | 119 ft | 4 kts | 230° |
| 2026-04-25 08:50 | 32.00002 | 34.87500 | 119 ft | 3 kts | 211° |
| 2026-04-25 08:50 | 32.00024 | 34.87516 | 114 ft | 3 kts | 212° |
| 2026-04-25 08:50 | 32.00026 | 34.87518 | 119 ft | 1 kts | 212° |
| 2026-04-25 08:53 | 32.00023 | 34.87516 | 119 ft | 2 kts | 212° |
| 2026-04-25 08:53 | 32.00003 | 34.87502 | 116 ft | 5 kts | 204° |
| 2026-04-25 08:54 | 31.99956 | 34.87502 | 119 ft | 5 kts | 149° |
| 2026-04-25 08:54 | 31.99953 | 34.87547 | 119 ft | 7 kts | 76° |
| 2026-04-25 08:54 | 31.99997 | 34.87596 | 116 ft | 10 kts | 30° |
| 2026-04-25 08:54 | 32.00069 | 34.87646 | 116 ft | 13 kts | 31° |
| 2026-04-25 08:55 | 32.00157 | 34.87709 | 117 ft | 16 kts | 31° |
| 2026-04-25 08:55 | 32.00258 | 34.87781 | 115 ft | 18 kts | 32° |
| 2026-04-25 08:55 | 32.00360 | 34.87856 | 118 ft | 17 kts | 32° |
| 2026-04-25 08:55 | 32.00458 | 34.87926 | 116 ft | 15 kts | 31° |
| 2026-04-25 08:56 | 32.00553 | 34.87930 | 119 ft | 15 kts | 324° |
| 2026-04-25 08:56 | 32.00644 | 34.87954 | 118 ft | 14 kts | 36° |
| 2026-04-25 08:56 | 32.00725 | 34.88016 | 116 ft | 14 kts | 32° |
| 2026-04-25 08:56 | 32.00803 | 34.88074 | 116 ft | 13 kts | 32° |
| 2026-04-25 08:57 | 32.00879 | 34.88129 | 119 ft | 13 kts | 31° |
| 2026-04-25 08:57 | 32.00953 | 34.88181 | 117 ft | 12 kts | 31° |
| 2026-04-25 08:57 | 32.01025 | 34.88233 | 117 ft | 12 kts | 31° |
| 2026-04-25 08:57 | 32.01095 | 34.88285 | 117 ft | 12 kts | 32° |
| 2026-04-25 08:58 | 32.01164 | 34.88335 | 119 ft | 11 kts | 32° |
| 2026-04-25 08:58 | 32.01238 | 34.88390 | 120 ft | 15 kts | 34° |
| 2026-04-25 08:58 | 32.01331 | 34.88481 | 117 ft | 20 kts | 46° |
| 2026-04-25 08:58 | 32.01422 | 34.88624 | 119 ft | 23 kts | 59° |
| 2026-04-25 08:59 | 32.01488 | 34.88806 | 117 ft | 25 kts | 75° |
| 2026-04-25 08:59 | 32.01521 | 34.89004 | 116 ft | 24 kts | 79° |
| 2026-04-25 08:59 | 32.01556 | 34.89144 | 116 ft | 13 kts | 53° |
| 2026-04-25 08:59 | 32.01638 | 34.89152 | 116 ft | 13 kts | 343° |
| 2026-04-25 09:00 | 32.01736 | 34.89116 | 116 ft | 14 kts | 339° |
| 2026-04-25 09:00 | 32.01740 | 34.89056 | 114 ft | 20 kts | 259° |
| 2026-04-25 09:00 | 32.01672 | 34.88607 | 119 ft | 91 kts | 259° |
| 2026-04-25 09:00 | 32.01523 | 34.87618 | 119 ft | 152 kts | 261° |
| 2026-04-25 09:01 | 32.01297 | 34.86237 | 383 ft | 180 kts | 259° |
| 2026-04-25 09:01 | 32.01023 | 34.84735 | 1022 ft | 191 kts | 257° |
| 2026-04-25 09:01 | 32.00719 | 34.83173 | 1656 ft | 207 kts | 256° |
| 2026-04-25 09:01 | 32.00362 | 34.81415 | 1894 ft | 231 kts | 256° |
| 2026-04-25 09:02 | 31.99971 | 34.79540 | 2431 ft | 241 kts | 255° |
| 2026-04-25 09:02 | 31.99549 | 34.77534 | 2827 ft | 261 kts | 255° |
| 2026-04-25 09:02 | 31.99199 | 34.75407 | 3604 ft | 268 kts | 268° |
| 2026-04-25 09:02 | 31.99610 | 34.73262 | 4511 ft | 272 kts | 289° |
| 2026-04-25 09:03 | 32.00283 | 34.71162 | 5304 ft | 277 kts | 289° |
| 2026-04-25 09:03 | 32.00962 | 34.69023 | 6117 ft | 280 kts | 288° |
| 2026-04-25 09:03 | 32.01642 | 34.66857 | 6895 ft | 283 kts | 288° |
| 2026-04-25 09:03 | 32.02324 | 34.64676 | 7683 ft | 285 kts | 288° |
| 2026-04-25 09:04 | 32.02809 | 34.62424 | 8428 ft | 285 kts | 271° |
| 2026-04-25 09:04 | 32.02892 | 34.60095 | 9237 ft | 285 kts | 269° |
| 2026-04-25 09:04 | 32.02981 | 34.57751 | 10007 ft | 288 kts | 270° |
| 2026-04-25 09:04 | 32.03093 | 34.55357 | 10466 ft | 302 kts | 270° |
| 2026-04-25 09:05 | 32.03221 | 34.52787 | 10622 ft | 326 kts | 271° |
| 2026-04-25 09:05 | 32.03366 | 34.50037 | 10827 ft | 346 kts | 271° |
| 2026-04-25 09:05 | 32.03518 | 34.47172 | 11342 ft | 354 kts | 271° |
| 2026-04-25 09:05 | 32.03671 | 34.44307 | 12044 ft | 356 kts | 271° |
| 2026-04-25 09:06 | 32.03835 | 34.41395 | 12777 ft | 357 kts | 271° |
| 2026-04-25 09:06 | 32.04005 | 34.38465 | 13473 ft | 360 kts | 271° |
| 2026-04-25 09:06 | 32.04177 | 34.35508 | 14103 ft | 363 kts | 271° |
| 2026-04-25 09:06 | 32.04348 | 34.32536 | 14751 ft | 364 kts | 270° |
| 2026-04-25 09:07 | 32.04519 | 34.29543 | 15356 ft | 368 kts | 270° |
| 2026-04-25 09:07 | 32.04689 | 34.26526 | 15994 ft | 370 kts | 270° |
| 2026-04-25 09:07 | 32.04952 | 34.23501 | 16620 ft | 375 kts | 279° |
| 2026-04-25 09:07 | 32.05966 | 34.20622 | 17224 ft | 386 kts | 295° |
| 2026-04-25 09:08 | 32.07356 | 34.17896 | 17853 ft | 390 kts | 297° |
| 2026-04-25 09:08 | 32.08788 | 34.15163 | 18379 ft | 394 kts | 297° |
| 2026-04-25 09:08 | 32.10229 | 34.12402 | 18874 ft | 397 kts | 297° |
| 2026-04-25 09:08 | 32.11667 | 34.09615 | 19391 ft | 399 kts | 296° |
| 2026-04-25 09:09 | 32.13103 | 34.06802 | 19901 ft | 401 kts | 296° |
| 2026-04-25 09:09 | 32.14541 | 34.03967 | 20391 ft | 404 kts | 296° |
| 2026-04-25 09:09 | 32.15986 | 34.01110 | 20873 ft | 407 kts | 296° |
| 2026-04-25 09:09 | 32.17465 | 33.98246 | 21352 ft | 411 kts | 299° |
| 2026-04-25 09:10 | 32.19077 | 33.95440 | 21831 ft | 415 kts | 301° |
| 2026-04-25 09:10 | 32.20762 | 33.92663 | 22326 ft | 417 kts | 302° |
| 2026-04-25 09:10 | 32.22474 | 33.89888 | 22809 ft | 419 kts | 302° |
| 2026-04-25 09:10 | 32.24196 | 33.87097 | 23263 ft | 421 kts | 302° |
| 2026-04-25 09:11 | 32.27648 | 33.81445 | 23975 ft | 428 kts | 301° |
| 2026-04-25 09:11 | 32.29388 | 33.78568 | 24304 ft | 431 kts | 301° |
| 2026-04-25 09:11 | 32.31129 | 33.75678 | 24709 ft | 432 kts | 301° |
| 2026-04-25 09:12 | 32.32847 | 33.72821 | 25118 ft | 433 kts | 301° |
| 2026-04-25 09:12 | 32.34592 | 33.69912 | 25490 ft | 434 kts | 301° |
| 2026-04-25 09:12 | 32.36342 | 33.66990 | 25838 ft | 437 kts | 301° |
| 2026-04-25 09:12 | 32.38101 | 33.64052 | 26164 ft | 439 kts | 301° |
| 2026-04-25 09:13 | 32.39869 | 33.61096 | 26511 ft | 440 kts | 301° |
| 2026-04-25 09:13 | 32.41639 | 33.58135 | 26863 ft | 442 kts | 301° |
| 2026-04-25 09:13 | 32.43415 | 33.55161 | 27208 ft | 443 kts | 301° |
| 2026-04-25 09:13 | 32.45196 | 33.52178 | 27546 ft | 444 kts | 300° |
| 2026-04-25 09:14 | 32.46985 | 33.49179 | 27816 ft | 447 kts | 300° |
| 2026-04-25 09:14 | 32.48782 | 33.46162 | 28133 ft | 448 kts | 300° |
| 2026-04-25 09:14 | 32.50583 | 33.43139 | 28467 ft | 449 kts | 300° |
| 2026-04-25 09:14 | 32.52386 | 33.40109 | 28822 ft | 449 kts | 300° |
| 2026-04-25 09:15 | 32.54182 | 33.37090 | 29277 ft | 447 kts | 300° |
| 2026-04-25 09:15 | 32.55946 | 33.34125 | 29775 ft | 444 kts | 300° |
| 2026-04-25 09:15 | 32.57718 | 33.31143 | 30210 ft | 442 kts | 300° |
| 2026-04-25 09:15 | 32.59484 | 33.28166 | 30552 ft | 441 kts | 300° |
| 2026-04-25 09:16 | 32.61246 | 33.25194 | 30889 ft | 440 kts | 300° |
| 2026-04-25 09:16 | 32.62997 | 33.22236 | 31249 ft | 438 kts | 299° |
| 2026-04-25 09:16 | 32.64744 | 33.19285 | 31623 ft | 435 kts | 299° |
| 2026-04-25 09:16 | 32.66480 | 33.16349 | 31979 ft | 434 kts | 299° |
| 2026-04-25 09:17 | 32.69938 | 33.10492 | 32609 ft | 432 kts | 299° |
| 2026-04-25 09:17 | 32.71657 | 33.07578 | 32950 ft | 430 kts | 299° |
| 2026-04-25 09:17 | 32.73371 | 33.04671 | 33332 ft | 428 kts | 298° |
| 2026-04-25 09:18 | 32.75078 | 33.01772 | 33624 ft | 428 kts | 298° |
| 2026-04-25 09:18 | 32.76780 | 32.98880 | 33916 ft | 427 kts | 298° |
| 2026-04-25 09:18 | 32.78485 | 32.95977 | 33926 ft | 431 kts | 298° |
| 2026-04-25 09:19 | 32.81918 | 32.90129 | 33939 ft | 430 kts | 298° |
| 2026-04-25 09:19 | 32.85317 | 32.84339 | 33949 ft | 424 kts | 298° |
| 2026-04-25 09:20 | 32.88685 | 32.78589 | 33957 ft | 423 kts | 298° |
| 2026-04-25 09:20 | 32.92041 | 32.72847 | 33954 ft | 422 kts | 298° |
| 2026-04-25 09:21 | 32.95365 | 32.67150 | 33951 ft | 422 kts | 298° |
| 2026-04-25 09:21 | 32.98713 | 32.61405 | 33980 ft | 422 kts | 298° |
| 2026-04-25 09:22 | 33.02065 | 32.55643 | 33960 ft | 424 kts | 298° |
| 2026-04-25 09:22 | 33.05425 | 32.49860 | 33959 ft | 425 kts | 298° |
| 2026-04-25 09:23 | 33.08794 | 32.44053 | 33956 ft | 427 kts | 298° |
| 2026-04-25 09:23 | 33.12172 | 32.38221 | 33959 ft | 428 kts | 298° |
| 2026-04-25 09:24 | 33.15554 | 32.32373 | 33968 ft | 429 kts | 298° |
| 2026-04-25 09:24 | 33.18947 | 32.26497 | 33969 ft | 431 kts | 298° |
| 2026-04-25 09:25 | 33.22348 | 32.20597 | 33971 ft | 432 kts | 298° |
| 2026-04-25 09:25 | 33.25755 | 32.14678 | 33965 ft | 433 kts | 298° |
| 2026-04-25 09:26 | 33.29170 | 32.08735 | 33958 ft | 434 kts | 298° |
| 2026-04-25 09:26 | 33.32562 | 32.02822 | 33962 ft | 435 kts | 299° |
| 2026-04-25 09:27 | 33.35981 | 31.96854 | 33965 ft | 435 kts | 299° |
| 2026-04-25 09:27 | 33.39400 | 31.90874 | 33962 ft | 436 kts | 299° |
| 2026-04-25 09:28 | 33.42821 | 31.84883 | 33964 ft | 436 kts | 299° |
| 2026-04-25 09:28 | 33.46841 | 31.79401 | 33987 ft | 448 kts | 319° |
| 2026-04-25 09:28 | 33.49531 | 31.77454 | 33952 ft | 456 kts | 331° |
| 2026-04-25 09:29 | 33.52539 | 31.76181 | 33986 ft | 460 kts | 339° |
| 2026-04-25 09:29 | 33.58709 | 31.74072 | 33975 ft | 461 kts | 340° |
| 2026-04-25 09:30 | 33.64876 | 31.71931 | 33957 ft | 461 kts | 340° |
| 2026-04-25 09:30 | 33.71009 | 31.69720 | 33964 ft | 460 kts | 339° |
| 2026-04-25 09:31 | 33.77131 | 31.67496 | 33967 ft | 459 kts | 339° |
| 2026-04-25 09:31 | 33.83245 | 31.65275 | 33977 ft | 459 kts | 339° |
| 2026-04-25 09:32 | 33.89351 | 31.63046 | 33959 ft | 458 kts | 339° |
| 2026-04-25 09:32 | 33.95447 | 31.60816 | 33952 ft | 458 kts | 339° |
| 2026-04-25 09:33 | 34.01495 | 31.58600 | 33970 ft | 457 kts | 339° |
| 2026-04-25 09:33 | 34.07574 | 31.56370 | 33968 ft | 456 kts | 339° |
| 2026-04-25 09:34 | 34.13645 | 31.54140 | 33967 ft | 456 kts | 339° |
| 2026-04-25 09:34 | 34.19716 | 31.51906 | 33983 ft | 456 kts | 339° |
| 2026-04-25 09:35 | 34.25783 | 31.49671 | 33966 ft | 456 kts | 339° |
| 2026-04-25 09:35 | 34.31848 | 31.47433 | 33991 ft | 456 kts | 339° |
| 2026-04-25 09:36 | 34.37912 | 31.45191 | 33968 ft | 456 kts | 339° |
| 2026-04-25 09:36 | 34.43980 | 31.42945 | 33974 ft | 456 kts | 339° |
| 2026-04-25 09:37 | 34.50040 | 31.40699 | 33967 ft | 455 kts | 339° |
| 2026-04-25 09:37 | 34.56098 | 31.38450 | 33973 ft | 455 kts | 339° |
| 2026-04-25 09:38 | 34.62154 | 31.36198 | 33971 ft | 455 kts | 339° |
| 2026-04-25 09:38 | 34.67192 | 31.34322 | 33977 ft | 455 kts | 339° |
| 2026-04-25 09:39 | 34.73250 | 31.32063 | 33975 ft | 455 kts | 339° |
| 2026-04-25 09:39 | 34.79307 | 31.29801 | 33973 ft | 455 kts | 339° |
| 2026-04-25 09:40 | 34.88397 | 31.26400 | 33975 ft | 456 kts | 339° |
| 2026-04-25 09:40 | 34.94462 | 31.24126 | 33990 ft | 456 kts | 339° |
| 2026-04-25 09:41 | 35.00535 | 31.21846 | 33982 ft | 457 kts | 339° |
| 2026-04-25 09:41 | 35.06608 | 31.19562 | 33987 ft | 457 kts | 339° |
| 2026-04-25 09:42 | 35.12689 | 31.17272 | 33980 ft | 457 kts | 339° |
| 2026-04-25 09:42 | 35.18773 | 31.14977 | 33982 ft | 458 kts | 339° |
| 2026-04-25 09:43 | 35.24862 | 31.12676 | 33984 ft | 458 kts | 339° |
| 2026-04-25 09:43 | 35.30957 | 31.10370 | 33994 ft | 458 kts | 339° |
| 2026-04-25 09:44 | 35.37053 | 31.08059 | 33987 ft | 459 kts | 339° |
| 2026-04-25 09:44 | 35.43115 | 31.05758 | 33992 ft | 459 kts | 339° |
| 2026-04-25 09:45 | 35.49221 | 31.03436 | 33995 ft | 460 kts | 339° |
| 2026-04-25 09:45 | 35.55330 | 31.01110 | 34004 ft | 460 kts | 339° |
| 2026-04-25 09:46 | 35.61442 | 30.98779 | 33998 ft | 460 kts | 339° |
| 2026-04-25 09:46 | 35.67556 | 30.96442 | 33996 ft | 460 kts | 339° |
| 2026-04-25 09:47 | 35.73675 | 30.94101 | 34001 ft | 461 kts | 340° |
| 2026-04-25 09:47 | 35.79795 | 30.91755 | 34011 ft | 460 kts | 340° |
| 2026-04-25 09:48 | 35.85910 | 30.89407 | 33994 ft | 460 kts | 340° |
| 2026-04-25 09:48 | 35.92018 | 30.87058 | 34003 ft | 460 kts | 340° |
| 2026-04-25 09:49 | 35.98120 | 30.84708 | 34005 ft | 459 kts | 340° |
| 2026-04-25 09:49 | 36.04264 | 30.82524 | 33994 ft | 461 kts | 347° |
| 2026-04-25 09:50 | 36.10683 | 30.82035 | 34015 ft | 463 kts | 357° |
| 2026-04-25 09:50 | 36.17130 | 30.81941 | 34006 ft | 463 kts | 357° |
| 2026-04-25 09:51 | 36.23563 | 30.81782 | 34000 ft | 462 kts | 356° |
| 2026-04-25 09:51 | 36.29990 | 30.81577 | 33999 ft | 462 kts | 357° |
| 2026-04-25 09:52 | 36.36367 | 30.81368 | 34001 ft | 461 kts | 357° |
| 2026-04-25 09:52 | 36.42780 | 30.81161 | 34011 ft | 461 kts | 357° |
| 2026-04-25 09:53 | 36.49188 | 30.80936 | 34001 ft | 460 kts | 356° |
| 2026-04-25 09:53 | 36.55632 | 30.80703 | 33995 ft | 460 kts | 356° |
| 2026-04-25 09:54 | 36.61983 | 30.80476 | 34004 ft | 460 kts | 356° |
| 2026-04-25 09:54 | 36.68373 | 30.80248 | 34015 ft | 459 kts | 357° |
| 2026-04-25 09:55 | 36.74757 | 30.80021 | 34015 ft | 459 kts | 357° |
| 2026-04-25 09:55 | 36.81149 | 30.79822 | 34053 ft | 462 kts | 1° |
| 2026-04-25 09:56 | 36.84314 | 30.80581 | 34074 ft | 468 kts | 22° |
| 2026-04-25 09:56 | 36.87139 | 30.82576 | 34268 ft | 467 kts | 40° |
| 2026-04-25 09:56 | 36.89384 | 30.85474 | 34522 ft | 464 kts | 57° |
| 2026-04-25 09:56 | 36.90890 | 30.89007 | 34719 ft | 460 kts | 72° |
| 2026-04-25 09:57 | 36.91607 | 30.92867 | 34859 ft | 456 kts | 89° |
| 2026-04-25 09:57 | 36.91570 | 30.96812 | 35004 ft | 454 kts | 96° |
| 2026-04-25 09:57 | 36.91153 | 31.04732 | 35002 ft | 458 kts | 96° |
| 2026-04-25 09:58 | 36.90743 | 31.12646 | 35003 ft | 455 kts | 96° |
| 2026-04-25 09:58 | 36.90392 | 31.20531 | 35012 ft | 454 kts | 96° |
| 2026-04-25 09:59 | 36.90056 | 31.28387 | 35006 ft | 452 kts | 96° |
| 2026-04-25 09:59 | 36.89713 | 31.36233 | 35020 ft | 452 kts | 96° |
| 2026-04-25 10:00 | 36.89447 | 31.44088 | 35031 ft | 454 kts | 91° |
| 2026-04-25 10:00 | 36.89718 | 31.51985 | 35037 ft | 456 kts | 89° |
| 2026-04-25 10:01 | 36.90058 | 31.59906 | 35040 ft | 457 kts | 90° |
| 2026-04-25 10:01 | 36.90323 | 31.67856 | 35047 ft | 459 kts | 90° |
| 2026-04-25 10:02 | 36.90542 | 31.75841 | 35048 ft | 460 kts | 92° |
| 2026-04-25 10:02 | 36.90398 | 31.83821 | 35047 ft | 460 kts | 95° |
| 2026-04-25 10:03 | 36.90178 | 31.91825 | 35070 ft | 462 kts | 94° |
| 2026-04-25 10:03 | 36.90007 | 31.99813 | 35061 ft | 464 kts | 94° |
| 2026-04-25 10:04 | 36.89817 | 32.07859 | 35057 ft | 463 kts | 94° |
| 2026-04-25 10:04 | 36.89616 | 32.15885 | 35075 ft | 462 kts | 95° |
| 2026-04-25 10:05 | 36.89413 | 32.23904 | 35064 ft | 461 kts | 95° |
| 2026-04-25 10:05 | 36.89206 | 32.31898 | 35065 ft | 460 kts | 95° |
| 2026-04-25 10:06 | 36.88994 | 32.39884 | 35057 ft | 459 kts | 95° |
| 2026-04-25 10:06 | 36.88778 | 32.47850 | 35062 ft | 459 kts | 95° |
| 2026-04-25 10:07 | 36.88558 | 32.55811 | 35056 ft | 458 kts | 95° |
| 2026-04-25 10:07 | 36.88335 | 32.63775 | 35053 ft | 458 kts | 95° |
| 2026-04-25 10:08 | 36.88107 | 32.71737 | 35059 ft | 459 kts | 95° |
| 2026-04-25 10:08 | 36.87874 | 32.79667 | 35038 ft | 461 kts | 95° |
| 2026-04-25 10:09 | 36.87633 | 32.87659 | 35048 ft | 461 kts | 96° |
| 2026-04-25 10:09 | 36.87388 | 32.95667 | 35041 ft | 462 kts | 96° |
| 2026-04-25 10:10 | 36.87137 | 33.03683 | 35054 ft | 463 kts | 96° |
| 2026-04-25 10:10 | 36.86880 | 33.11733 | 35056 ft | 465 kts | 96° |
| 2026-04-25 10:11 | 36.86616 | 33.19813 | 35044 ft | 467 kts | 96° |
| 2026-04-25 10:11 | 36.87090 | 33.27895 | 35051 ft | 477 kts | 71° |
| 2026-04-25 10:12 | 36.88586 | 33.31595 | 35051 ft | 481 kts | 55° |
| 2026-04-25 10:12 | 36.90833 | 33.34677 | 35077 ft | 480 kts | 43° |
| 2026-04-25 10:13 | 36.98328 | 33.43059 | 35059 ft | 483 kts | 41° |
| 2026-04-25 10:13 | 37.03319 | 33.48683 | 35056 ft | 483 kts | 42° |
| 2026-04-25 10:14 | 37.08271 | 33.54361 | 35065 ft | 482 kts | 43° |
| 2026-04-25 10:14 | 37.13206 | 33.60057 | 35053 ft | 482 kts | 43° |
| 2026-04-25 10:15 | 37.18126 | 33.65743 | 35057 ft | 480 kts | 43° |
| 2026-04-25 10:15 | 37.23035 | 33.71422 | 35056 ft | 480 kts | 43° |
| 2026-04-25 10:16 | 37.27931 | 33.77096 | 35053 ft | 479 kts | 43° |
| 2026-04-25 10:16 | 37.32788 | 33.82735 | 35053 ft | 478 kts | 43° |
| 2026-04-25 10:17 | 37.37668 | 33.88412 | 35059 ft | 478 kts | 42° |
| 2026-04-25 10:17 | 37.42544 | 33.94094 | 35055 ft | 478 kts | 42° |
| 2026-04-25 10:18 | 37.47414 | 33.99782 | 35042 ft | 478 kts | 42° |
| 2026-04-25 10:18 | 37.52281 | 34.05487 | 35045 ft | 478 kts | 42° |
| 2026-04-25 10:19 | 37.57145 | 34.11200 | 35051 ft | 478 kts | 42° |
| 2026-04-25 10:19 | 37.62008 | 34.16924 | 35040 ft | 479 kts | 42° |
| 2026-04-25 10:20 | 37.66878 | 34.22665 | 35023 ft | 479 kts | 42° |
| 2026-04-25 10:20 | 37.71757 | 34.28428 | 34997 ft | 480 kts | 42° |
| 2026-04-25 10:21 | 37.76638 | 34.34204 | 34978 ft | 481 kts | 42° |
| 2026-04-25 10:21 | 37.81522 | 34.39995 | 34977 ft | 482 kts | 42° |
| 2026-04-25 10:22 | 37.86418 | 34.45811 | 34970 ft | 483 kts | 42° |
| 2026-04-25 10:22 | 37.91315 | 34.51637 | 34958 ft | 483 kts | 41° |
| 2026-04-25 10:23 | 37.96220 | 34.57469 | 35001 ft | 483 kts | 41° |
| 2026-04-25 10:23 | 38.01085 | 34.63260 | 35051 ft | 483 kts | 41° |
| 2026-04-25 10:24 | 38.05967 | 34.69086 | 35045 ft | 481 kts | 41° |
| 2026-04-25 10:24 | 38.10823 | 34.74895 | 35050 ft | 478 kts | 41° |
| 2026-04-25 10:25 | 38.15654 | 34.80684 | 35046 ft | 476 kts | 41° |
| 2026-04-25 10:25 | 38.20453 | 34.86447 | 35051 ft | 474 kts | 41° |
| 2026-04-25 10:26 | 38.25234 | 34.92197 | 35066 ft | 472 kts | 41° |
| 2026-04-25 10:26 | 38.29192 | 34.96958 | 35061 ft | 471 kts | 41° |
| 2026-04-25 10:27 | 38.33950 | 35.02664 | 35057 ft | 469 kts | 41° |
| 2026-04-25 10:27 | 38.38731 | 35.08323 | 35071 ft | 468 kts | 39° |
| 2026-04-25 10:28 | 38.43715 | 35.13639 | 35077 ft | 467 kts | 37° |
| 2026-04-25 10:28 | 38.48720 | 35.18931 | 35075 ft | 468 kts | 38° |
| 2026-04-25 10:29 | 38.53661 | 35.24364 | 35084 ft | 470 kts | 41° |
| 2026-04-25 10:29 | 38.58329 | 35.30251 | 35079 ft | 472 kts | 44° |
| 2026-04-25 10:30 | 38.62939 | 35.36258 | 35086 ft | 474 kts | 43° |
| 2026-04-25 10:30 | 38.67586 | 35.42252 | 35108 ft | 475 kts | 43° |
| 2026-04-25 10:31 | 38.72262 | 35.48241 | 35107 ft | 476 kts | 43° |
| 2026-04-25 10:31 | 38.76910 | 35.54196 | 35109 ft | 476 kts | 43° |
| 2026-04-25 10:32 | 38.81591 | 35.60207 | 35100 ft | 477 kts | 43° |
| 2026-04-25 10:32 | 38.86269 | 35.66230 | 35100 ft | 477 kts | 43° |
| 2026-04-25 10:33 | 38.90944 | 35.72261 | 35088 ft | 477 kts | 43° |
| 2026-04-25 10:33 | 38.95627 | 35.78289 | 35086 ft | 476 kts | 42° |
| 2026-04-25 10:34 | 39.00380 | 35.84191 | 35098 ft | 475 kts | 41° |
| 2026-04-25 10:34 | 39.05145 | 35.90075 | 35102 ft | 475 kts | 42° |
| 2026-04-25 10:35 | 39.09888 | 35.95981 | 35101 ft | 475 kts | 42° |
| 2026-04-25 10:35 | 39.14626 | 36.01902 | 35105 ft | 474 kts | 42° |
| 2026-04-25 10:36 | 39.19276 | 36.07946 | 35090 ft | 475 kts | 44° |
| 2026-04-25 10:36 | 39.23824 | 36.14128 | 35101 ft | 475 kts | 45° |
| 2026-04-25 10:37 | 39.28370 | 36.20305 | 35111 ft | 474 kts | 44° |
| 2026-04-25 10:37 | 39.32929 | 36.26468 | 35095 ft | 474 kts | 44° |
| 2026-04-25 10:38 | 39.37490 | 36.32635 | 35098 ft | 474 kts | 44° |
| 2026-04-25 10:38 | 39.42013 | 36.38764 | 35117 ft | 474 kts | 44° |
| 2026-04-25 10:39 | 39.46566 | 36.44947 | 35101 ft | 475 kts | 44° |
| 2026-04-25 10:39 | 39.51119 | 36.51142 | 35100 ft | 475 kts | 44° |
| 2026-04-25 10:40 | 39.55665 | 36.57350 | 35105 ft | 475 kts | 44° |
| 2026-04-25 10:40 | 39.60206 | 36.63568 | 35120 ft | 475 kts | 44° |
| 2026-04-25 10:41 | 39.64740 | 36.69789 | 35146 ft | 474 kts | 44° |
| 2026-04-25 10:41 | 39.69270 | 36.76016 | 35173 ft | 474 kts | 44° |
| 2026-04-25 10:42 | 39.73792 | 36.82246 | 35183 ft | 474 kts | 44° |
| 2026-04-25 10:42 | 39.78289 | 36.88516 | 35178 ft | 475 kts | 48° |
| 2026-04-25 10:43 | 39.81875 | 36.95738 | 35192 ft | 476 kts | 59° |
| 2026-04-25 10:43 | 39.85057 | 37.03297 | 35180 ft | 476 kts | 60° |
| 2026-04-25 10:44 | 39.88256 | 37.10837 | 35161 ft | 475 kts | 59° |
| 2026-04-25 10:44 | 39.91488 | 37.18342 | 35151 ft | 475 kts | 59° |
| 2026-04-25 10:45 | 39.94722 | 37.25835 | 35115 ft | 474 kts | 59° |
| 2026-04-25 10:45 | 39.97922 | 37.33271 | 35100 ft | 473 kts | 59° |
| 2026-04-25 10:46 | 40.01132 | 37.40752 | 35112 ft | 472 kts | 59° |
| 2026-04-25 10:46 | 40.04331 | 37.48231 | 35104 ft | 472 kts | 60° |
| 2026-04-25 10:47 | 40.07522 | 37.55704 | 35098 ft | 471 kts | 60° |
| 2026-04-25 10:47 | 40.10712 | 37.63159 | 35109 ft | 470 kts | 59° |
| 2026-04-25 10:48 | 40.13909 | 37.70598 | 35106 ft | 469 kts | 59° |
| 2026-04-25 10:48 | 40.17093 | 37.78027 | 35108 ft | 469 kts | 59° |
| 2026-04-25 10:49 | 40.20271 | 37.85468 | 35107 ft | 469 kts | 60° |
| 2026-04-25 10:49 | 40.23443 | 37.92917 | 35116 ft | 468 kts | 60° |
| 2026-04-25 10:50 | 40.26606 | 38.00364 | 35116 ft | 468 kts | 60° |
| 2026-04-25 10:50 | 40.29764 | 38.07814 | 35103 ft | 468 kts | 60° |
| 2026-04-25 10:51 | 40.32915 | 38.15268 | 35121 ft | 467 kts | 60° |
| 2026-04-25 10:51 | 40.35961 | 38.22793 | 35122 ft | 467 kts | 62° |
| 2026-04-25 10:52 | 40.38995 | 38.30325 | 35123 ft | 467 kts | 60° |
| 2026-04-25 10:52 | 40.42183 | 38.37749 | 35121 ft | 466 kts | 59° |
| 2026-04-25 10:53 | 40.45381 | 38.45148 | 35129 ft | 465 kts | 60° |
| 2026-04-25 10:53 | 40.48543 | 38.52555 | 35138 ft | 464 kts | 60° |
| 2026-04-25 10:54 | 40.51678 | 38.59966 | 35135 ft | 464 kts | 60° |
| 2026-04-25 10:54 | 40.54725 | 38.67432 | 35137 ft | 463 kts | 61° |
| 2026-04-25 10:55 | 40.57755 | 38.74913 | 35143 ft | 463 kts | 60° |
| 2026-04-25 10:55 | 40.60791 | 38.82386 | 35139 ft | 463 kts | 60° |
| 2026-04-25 10:56 | 40.63804 | 38.89810 | 35142 ft | 462 kts | 61° |
| 2026-04-25 10:56 | 40.66824 | 38.97291 | 35137 ft | 463 kts | 60° |
| 2026-04-25 10:57 | 40.69840 | 39.04796 | 35137 ft | 464 kts | 60° |
| 2026-04-25 10:57 | 40.72854 | 39.12314 | 35141 ft | 464 kts | 60° |
| 2026-04-25 10:58 | 40.75870 | 39.19853 | 35132 ft | 465 kts | 60° |
| 2026-04-25 10:58 | 40.78882 | 39.27402 | 35130 ft | 465 kts | 60° |
| 2026-04-25 10:59 | 40.81893 | 39.34966 | 35155 ft | 466 kts | 60° |
| 2026-04-25 10:59 | 40.84906 | 39.42556 | 35158 ft | 467 kts | 61° |
| 2026-04-25 11:00 | 40.87920 | 39.50169 | 35172 ft | 468 kts | 60° |
| 2026-04-25 11:00 | 40.90935 | 39.57802 | 35175 ft | 468 kts | 60° |
| 2026-04-25 11:01 | 40.93942 | 39.65436 | 35182 ft | 469 kts | 60° |
| 2026-04-25 11:01 | 40.96951 | 39.73092 | 35194 ft | 469 kts | 60° |
| 2026-04-25 11:02 | 40.99707 | 39.80915 | 35178 ft | 471 kts | 71° |
| 2026-04-25 11:02 | 41.01115 | 39.89392 | 35185 ft | 472 kts | 78° |
| 2026-04-25 11:03 | 41.02312 | 39.97930 | 35182 ft | 472 kts | 78° |
| 2026-04-25 11:03 | 41.03536 | 40.06459 | 35187 ft | 471 kts | 78° |
| 2026-04-25 11:04 | 41.04791 | 40.14979 | 35174 ft | 471 kts | 78° |
| 2026-04-25 11:04 | 41.06052 | 40.23506 | 35183 ft | 471 kts | 78° |
| 2026-04-25 11:05 | 41.07307 | 40.32029 | 35184 ft | 472 kts | 78° |
| 2026-04-25 11:05 | 41.08556 | 40.40569 | 35183 ft | 472 kts | 78° |
| 2026-04-25 11:06 | 41.09790 | 40.49063 | 35181 ft | 472 kts | 78° |
| 2026-04-25 11:06 | 41.11027 | 40.57619 | 35185 ft | 472 kts | 78° |
| 2026-04-25 11:07 | 41.12257 | 40.66175 | 35188 ft | 473 kts | 78° |
| 2026-04-25 11:07 | 41.13481 | 40.74745 | 35177 ft | 473 kts | 78° |
| 2026-04-25 11:08 | 41.14701 | 40.83325 | 35191 ft | 474 kts | 78° |
| 2026-04-25 11:08 | 41.15916 | 40.91919 | 35182 ft | 474 kts | 78° |
| 2026-04-25 11:09 | 41.17126 | 41.00526 | 35192 ft | 475 kts | 78° |
| 2026-04-25 11:09 | 41.18331 | 41.09151 | 35183 ft | 476 kts | 78° |
| 2026-04-25 11:10 | 41.19532 | 41.17792 | 35193 ft | 476 kts | 78° |
| 2026-04-25 11:10 | 41.20726 | 41.26434 | 35196 ft | 476 kts | 78° |
| 2026-04-25 11:11 | 41.21915 | 41.35089 | 35192 ft | 476 kts | 78° |
| 2026-04-25 11:11 | 41.23097 | 41.43745 | 35189 ft | 476 kts | 79° |
| 2026-04-25 11:12 | 41.24272 | 41.52400 | 35178 ft | 476 kts | 79° |
| 2026-04-25 11:12 | 41.25439 | 41.61046 | 35202 ft | 475 kts | 79° |
| 2026-04-25 11:13 | 41.26404 | 41.68232 | 35201 ft | 475 kts | 79° |
| 2026-04-25 11:13 | 41.27559 | 41.76884 | 35200 ft | 476 kts | 79° |
| 2026-04-25 11:14 | 41.28709 | 41.85552 | 35195 ft | 477 kts | 79° |
| 2026-04-25 11:14 | 41.29857 | 41.94242 | 35192 ft | 478 kts | 79° |
| 2026-04-25 11:15 | 41.30993 | 42.02966 | 35199 ft | 479 kts | 79° |
| 2026-04-25 11:15 | 41.32113 | 42.11716 | 35206 ft | 480 kts | 79° |
| 2026-04-25 11:16 | 41.33781 | 42.24839 | 34752 ft | 475 kts | 79° |
| 2026-04-25 11:16 | 41.34326 | 42.29149 | 34391 ft | 469 kts | 79° |
| 2026-04-25 11:16 | 41.34857 | 42.33359 | 33981 ft | 466 kts | 79° |
| 2026-04-25 11:17 | 41.35389 | 42.37593 | 33544 ft | 462 kts | 79° |
| 2026-04-25 11:17 | 41.35917 | 42.41795 | 33127 ft | 459 kts | 79° |
| 2026-04-25 11:17 | 41.36438 | 42.45962 | 32736 ft | 454 kts | 79° |
| 2026-04-25 11:17 | 41.36952 | 42.50093 | 32328 ft | 451 kts | 79° |
| 2026-04-25 11:18 | 41.37463 | 42.54197 | 31940 ft | 447 kts | 79° |
| 2026-04-25 11:18 | 41.37967 | 42.58269 | 31543 ft | 444 kts | 79° |
| 2026-04-25 11:18 | 41.38467 | 42.62315 | 31159 ft | 441 kts | 79° |
| 2026-04-25 11:18 | 41.38961 | 42.66324 | 30785 ft | 438 kts | 79° |
| 2026-04-25 11:19 | 41.39451 | 42.70313 | 30408 ft | 435 kts | 79° |
| 2026-04-25 11:19 | 41.39936 | 42.74273 | 29995 ft | 432 kts | 79° |
| 2026-04-25 11:19 | 41.40417 | 42.78215 | 29556 ft | 429 kts | 79° |
| 2026-04-25 11:19 | 41.40891 | 42.82112 | 29167 ft | 424 kts | 79° |
| 2026-04-25 11:20 | 41.41360 | 42.85975 | 28758 ft | 421 kts | 79° |
| 2026-04-25 11:20 | 41.41825 | 42.89807 | 28368 ft | 417 kts | 79° |
| 2026-04-25 11:20 | 41.42284 | 42.93606 | 27967 ft | 414 kts | 79° |
| 2026-04-25 11:20 | 41.42738 | 42.97382 | 27580 ft | 411 kts | 79° |
| 2026-04-25 11:21 | 41.43187 | 43.01117 | 27312 ft | 405 kts | 79° |
| 2026-04-25 11:21 | 41.43630 | 43.04805 | 26959 ft | 402 kts | 79° |
| 2026-04-25 11:21 | 41.44069 | 43.08473 | 26583 ft | 400 kts | 79° |
| 2026-04-25 11:21 | 41.44505 | 43.12119 | 26227 ft | 397 kts | 79° |
| 2026-04-25 11:22 | 41.44938 | 43.15749 | 25850 ft | 396 kts | 79° |
| 2026-04-25 11:22 | 41.45223 | 43.18144 | 25604 ft | 395 kts | 79° |
| 2026-04-25 11:22 | 41.45796 | 43.22972 | 25084 ft | 394 kts | 79° |
| 2026-04-25 11:22 | 41.46222 | 43.26567 | 24728 ft | 392 kts | 79° |
| 2026-04-25 11:23 | 41.46645 | 43.30156 | 24343 ft | 392 kts | 79° |
| 2026-04-25 11:23 | 41.47069 | 43.33752 | 23950 ft | 393 kts | 79° |
| 2026-04-25 11:23 | 41.47490 | 43.37348 | 23545 ft | 392 kts | 79° |
| 2026-04-25 11:23 | 41.47910 | 43.40941 | 23139 ft | 391 kts | 79° |
| 2026-04-25 11:24 | 41.48322 | 43.44469 | 22747 ft | 390 kts | 79° |
| 2026-04-25 11:24 | 41.48736 | 43.48035 | 22361 ft | 388 kts | 79° |
| 2026-04-25 11:24 | 41.49148 | 43.51584 | 22011 ft | 386 kts | 79° |
| 2026-04-25 11:24 | 41.49556 | 43.55112 | 21629 ft | 385 kts | 79° |
| 2026-04-25 11:25 | 41.49962 | 43.58636 | 21257 ft | 384 kts | 79° |
| 2026-04-25 11:25 | 41.50366 | 43.62151 | 20872 ft | 383 kts | 79° |
| 2026-04-25 11:25 | 41.50769 | 43.65659 | 20508 ft | 382 kts | 79° |
| 2026-04-25 11:25 | 41.51170 | 43.69165 | 20134 ft | 382 kts | 79° |
| 2026-04-25 11:26 | 41.51569 | 43.72663 | 19749 ft | 381 kts | 79° |
| 2026-04-25 11:26 | 41.51966 | 43.76150 | 19379 ft | 380 kts | 79° |
| 2026-04-25 11:26 | 41.52361 | 43.79629 | 18992 ft | 379 kts | 79° |
| 2026-04-25 11:26 | 41.52754 | 43.83103 | 18615 ft | 379 kts | 79° |
| 2026-04-25 11:27 | 41.53146 | 43.86578 | 18213 ft | 378 kts | 79° |
| 2026-04-25 11:27 | 41.53535 | 43.90046 | 17803 ft | 376 kts | 79° |
| 2026-04-25 11:27 | 41.53922 | 43.93492 | 17451 ft | 375 kts | 79° |
| 2026-04-25 11:27 | 41.54176 | 43.95768 | 17202 ft | 374 kts | 79° |
| 2026-04-25 11:28 | 41.54688 | 44.00346 | 16697 ft | 372 kts | 79° |
| 2026-04-25 11:28 | 41.54777 | 44.01148 | 16594 ft | 372 kts | 79° |
| 2026-04-25 11:28 | 41.55034 | 44.03460 | 16341 ft | 371 kts | 79° |
| 2026-04-25 11:28 | 41.55411 | 44.06856 | 15979 ft | 369 kts | 79° |
| 2026-04-25 11:29 | 41.55785 | 44.10233 | 15612 ft | 367 kts | 79° |
| 2026-04-25 11:29 | 41.56153 | 44.13556 | 15270 ft | 367 kts | 79° |
| 2026-04-25 11:29 | 41.56524 | 44.16928 | 14870 ft | 367 kts | 79° |
| 2026-04-25 11:29 | 41.56893 | 44.20292 | 14521 ft | 366 kts | 79° |
| 2026-04-25 11:30 | 41.57162 | 44.23665 | 14133 ft | 367 kts | 90° |
| 2026-04-25 11:30 | 41.56802 | 44.27047 | 13683 ft | 369 kts | 101° |
| 2026-04-25 11:30 | 41.56312 | 44.30411 | 13237 ft | 368 kts | 101° |
| 2026-04-25 11:30 | 41.55836 | 44.33733 | 12863 ft | 360 kts | 101° |
| 2026-04-25 11:31 | 41.55391 | 44.36982 | 12552 ft | 352 kts | 101° |
| 2026-04-25 11:31 | 41.54968 | 44.40166 | 12205 ft | 345 kts | 101° |
| 2026-04-25 11:31 | 41.54556 | 44.43290 | 11862 ft | 338 kts | 101° |
| 2026-04-25 11:31 | 41.54153 | 44.46359 | 11476 ft | 334 kts | 101° |
| 2026-04-25 11:32 | 41.53756 | 44.49385 | 11166 ft | 328 kts | 101° |
| 2026-04-25 11:32 | 41.53367 | 44.52351 | 10846 ft | 322 kts | 101° |
| 2026-04-25 11:32 | 41.52984 | 44.55267 | 10540 ft | 316 kts | 101° |
| 2026-04-25 11:32 | 41.52607 | 44.58126 | 10290 ft | 309 kts | 101° |
| 2026-04-25 11:33 | 41.52242 | 44.60893 | 10148 ft | 297 kts | 101° |
| 2026-04-25 11:33 | 41.51890 | 44.63562 | 10006 ft | 287 kts | 102° |
| 2026-04-25 11:33 | 41.51546 | 44.66153 | 9742 ft | 282 kts | 102° |
| 2026-04-25 11:33 | 41.51206 | 44.68711 | 9473 ft | 278 kts | 102° |
| 2026-04-25 11:34 | 41.50866 | 44.71244 | 9252 ft | 278 kts | 101° |
| 2026-04-25 11:34 | 41.50521 | 44.73806 | 9057 ft | 284 kts | 101° |
| 2026-04-25 11:34 | 41.50167 | 44.76428 | 9019 ft | 287 kts | 101° |
| 2026-04-25 11:34 | 41.49823 | 44.78984 | 8986 ft | 278 kts | 101° |
| 2026-04-25 11:35 | 41.49491 | 44.81445 | 8968 ft | 262 kts | 101° |
| 2026-04-25 11:35 | 41.49176 | 44.83789 | 8980 ft | 252 kts | 101° |
| 2026-04-25 11:35 | 41.48865 | 44.86082 | 8994 ft | 253 kts | 102° |
| 2026-04-25 11:35 | 41.48548 | 44.88418 | 9007 ft | 258 kts | 101° |
| 2026-04-25 11:36 | 41.48229 | 44.90762 | 8908 ft | 256 kts | 102° |
| 2026-04-25 11:36 | 41.47913 | 44.93085 | 8629 ft | 254 kts | 101° |
| 2026-04-25 11:36 | 41.47596 | 44.95419 | 8247 ft | 257 kts | 101° |
| 2026-04-25 11:36 | 41.47277 | 44.97759 | 7963 ft | 255 kts | 101° |
| 2026-04-25 11:37 | 41.46961 | 45.00070 | 7697 ft | 251 kts | 101° |
| 2026-04-25 11:37 | 41.46645 | 45.02378 | 7231 ft | 257 kts | 101° |
| 2026-04-25 11:37 | 41.46400 | 45.04743 | 6855 ft | 257 kts | 86° |
| 2026-04-25 11:37 | 41.46929 | 45.06946 | 6556 ft | 246 kts | 52° |
| 2026-04-25 11:38 | 41.47958 | 45.08654 | 6429 ft | 230 kts | 42° |
| 2026-04-25 11:38 | 41.49055 | 45.10182 | 6030 ft | 228 kts | 40° |
| 2026-04-25 11:38 | 41.50148 | 45.11687 | 5639 ft | 224 kts | 40° |
| 2026-04-25 11:38 | 41.51358 | 45.12873 | 5298 ft | 209 kts | 11° |
| 2026-04-25 11:39 | 41.52693 | 45.12775 | 5021 ft | 184 kts | 326° |
| 2026-04-25 11:39 | 41.53614 | 45.11667 | 4859 ft | 181 kts | 315° |
| 2026-04-25 11:39 | 41.54537 | 45.10545 | 4622 ft | 179 kts | 316° |
| 2026-04-25 11:39 | 41.55443 | 45.09439 | 4363 ft | 173 kts | 316° |
| 2026-04-25 11:40 | 41.56299 | 45.08377 | 4155 ft | 164 kts | 315° |
| 2026-04-25 11:40 | 41.57105 | 45.07369 | 3938 ft | 155 kts | 316° |
| 2026-04-25 11:40 | 41.57861 | 45.06423 | 3778 ft | 143 kts | 316° |
| 2026-04-25 11:40 | 41.58576 | 45.05528 | 3563 ft | 140 kts | 317° |
| 2026-04-25 11:41 | 41.59289 | 45.04635 | 3356 ft | 145 kts | 316° |
| 2026-04-25 11:41 | 41.60034 | 45.03703 | 3136 ft | 148 kts | 316° |
| 2026-04-25 11:41 | 41.60782 | 45.02770 | 2919 ft | 145 kts | 316° |
| 2026-04-25 11:41 | 41.61507 | 45.01864 | 2691 ft | 141 kts | 315° |
| 2026-04-25 11:42 | 41.62216 | 45.00976 | 2512 ft | 142 kts | 315° |
| 2026-04-25 11:42 | 41.62933 | 45.00080 | 2330 ft | 139 kts | 316° |
| 2026-04-25 11:42 | 41.63632 | 44.99207 | 2141 ft | 136 kts | 316° |
| 2026-04-25 11:42 | 41.64325 | 44.98342 | 1977 ft | 137 kts | 316° |
| 2026-04-25 11:43 | 41.65020 | 44.97472 | 1795 ft | 135 kts | 316° |
| 2026-04-25 11:43 | 41.65701 | 44.96622 | 1589 ft | 133 kts | 316° |
| 2026-04-25 11:43 | 41.66357 | 44.95804 | 1532 ft | 122 kts | 316° |
| 2026-04-25 11:43 | 41.66881 | 44.95146 | 1521 ft | 71 kts | 318° |
| 2026-04-25 11:44 | 41.67204 | 44.94745 | 1524 ft | 52 kts | 316° |
| 2026-04-25 11:44 | 41.67353 | 44.94558 | 1520 ft | 29 kts | 317° |
| 2026-04-25 11:44 | 41.67505 | 44.94412 | 1522 ft | 19 kts | 10° |
| 2026-04-25 11:44 | 41.67555 | 44.94536 | 1521 ft | 16 kts | 73° |
| 2026-04-25 11:45 | 41.67589 | 44.94671 | 1523 ft | 15 kts | 68° |
| 2026-04-25 11:45 | 41.67621 | 44.94805 | 1520 ft | 15 kts | 72° |
| 2026-04-25 11:45 | 41.67651 | 44.94936 | 1522 ft | 15 kts | 74° |
| 2026-04-25 11:45 | 41.67641 | 44.95076 | 1523 ft | 18 kts | 133° |
| 2026-04-25 11:46 | 41.67547 | 44.95206 | 1521 ft | 21 kts | 131° |
| 2026-04-25 11:46 | 41.67454 | 44.95348 | 1519 ft | 20 kts | 129° |
| 2026-04-25 11:46 | 41.67364 | 44.95486 | 1525 ft | 19 kts | 133° |
| 2026-04-25 11:46 | 41.67273 | 44.95615 | 1524 ft | 19 kts | 134° |
| 2026-04-25 11:47 | 41.67183 | 44.95737 | 1522 ft | 18 kts | 135° |
| 2026-04-25 11:47 | 41.67097 | 44.95856 | 1523 ft | 17 kts | 133° |
| 2026-04-25 11:47 | 41.67039 | 44.95971 | 1523 ft | 14 kts | 132° |
| 2026-04-25 11:47 | 41.66975 | 44.96060 | 1526 ft | 13 kts | 134° |
| 2026-04-25 11:48 | 41.66915 | 44.96111 | 1523 ft | 7 kts | 208° |
| 2026-04-25 11:48 | 41.66880 | 44.96068 | 1523 ft | 7 kts | 223° |
| 2026-04-25 11:48 | 41.66872 | 44.96058 | 1526 ft | 0 kts | 223° |
| 2026-04-25 11:48 | 41.66867 | 44.96051 | 1526 ft | 0 kts | 223° |